Meita Maru — YJQE8 — position and weather

sailwx.info

Track history (hours):
 
Tides and Currents Weather Stations Pressure Air Temp Water Temp Dewpoint Dewpoint Depression Visibility Wind Speed Wind Dir Waves Ship Positions

Meita Maru

Last reported at 2014-Jun-14 21:18 UTC. Time now 2014-Jul-25 06:52 UTC.
Position S 33°27' E 032°22'.
Warning: this ship's position is 40 days out of date.

Length 106 m; draft 4.9 m.

Type: Cargo ship. MMSI: 576419000.

Date/timePositionNaut miles runAvg speedWind from/ knotsBaromVisibWave heightAir tempDewpointWater temp
2014-Jun-14 21:18S 33°27' E 032°22'1013.3
2014-Jun-14 20:30S 33°29' E 032°10'1313.7
2014-Jun-14 19:33S 33°32' E 031°55'1513.9
2014-Jun-14 18:27S 33°37' E 031°37'1314.2
2014-Jun-14 17:33S 33°40' E 031°22'1513.9
2014-Jun-14 16:30S 33°45' E 031°05'1514.4
2014-Jun-14 15:29S 33°48' E 030°48'32113.4
2014-Jun-13 15:30S 34°57' E 024°29'2512.0
2014-Jun-13 13:27S 34°59' E 023°59'15314.9
2014-Jun-13 03:11S 35°10' E 020°53'9914.6
2014-Jun-12 20:23S 34°43' E 018°57'1214.7
2014-Jun-12 19:34S 34°37' E 018°44'1614.1
2014-Jun-12 18:26S 34°30' E 018°27'1613.6
2014-Jun-12 17:14S 34°18' E 018°14'812.3
2014-Jun-12 16:33S 34°09' E 018°13'1513.6
2014-Jun-12 15:25S 33°54' E 018°17'7 8.4
2014-Jun-12 14:33S 33°55' E 018°26'1 0.5
2014-Jun-12 13:31S 33°55' E 018°27'0 0.0
2014-Jun-12 12:28S 33°55' E 018°27'0 0.0
2014-Jun-12 11:28S 33°55' E 018°27'0 0.0
2014-Jun-12 10:31S 33°55' E 018°27'0 0.0
2014-Jun-12 09:28S 33°55' E 018°27'0 0.0
2014-Jun-12 08:28S 33°55' E 018°27'1 1.2
2014-Jun-12 07:33S 33°54' E 018°26'4 4.1
2014-Jun-12 06:32S 33°52' E 018°22'1413.7
2014-Jun-12 05:32S 33°43' E 018°09'2014.8
2014-Jun-12 04:12S 33°27' E 017°55'4214.4
2014-Jun-12 01:18S 32°55' E 017°24'3813.6
2014-Jun-11 22:32S 32°29' E 016°51'3014.0
2014-Jun-11 20:24S 32°09' E 016°25'  
Track history (hours):
 
Tides and Currents Weather Stations Pressure Air Temp Water Temp Dewpoint Dewpoint Depression Visibility Wind Speed Wind Dir Waves Ship Positions

Meita Maru

Last reported at 2014-Jun-14 21:18 UTC. Time now 2014-Jul-25 06:52 UTC.
Position S 33°27' E 032°22'.
Warning: this ship's position is 40 days out of date.

Length 106 m; draft 4.9 m.

Type: Cargo ship. MMSI: 576419000.

Date/timePositionNaut miles runAvg speedWind from/ knotsBaromVisibWave heightAir tempDewpointWater temp
2014-Jun-14 21:18S 33°27' E 032°22'1013.3
2014-Jun-14 20:30S 33°29' E 032°10'1313.7
2014-Jun-14 19:33S 33°32' E 031°55'1513.9
2014-Jun-14 18:27S 33°37' E 031°37'1314.2
2014-Jun-14 17:33S 33°40' E 031°22'1513.9
2014-Jun-14 16:30S 33°45' E 031°05'1514.4
2014-Jun-14 15:29S 33°48' E 030°48'32113.4
2014-Jun-13 15:30S 34°57' E 024°29'2512.0
2014-Jun-13 13:27S 34°59' E 023°59'15314.9
2014-Jun-13 03:11S 35°10' E 020°53'9914.6
2014-Jun-12 20:23S 34°43' E 018°57'1214.7
2014-Jun-12 19:34S 34°37' E 018°44'1614.1
2014-Jun-12 18:26S 34°30' E 018°27'1613.6
2014-Jun-12 17:14S 34°18' E 018°14'812.3
2014-Jun-12 16:33S 34°09' E 018°13'1513.6
2014-Jun-12 15:25S 33°54' E 018°17'7 8.4
2014-Jun-12 14:33S 33°55' E 018°26'1 0.5
2014-Jun-12 13:31S 33°55' E 018°27'0 0.0
2014-Jun-12 12:28S 33°55' E 018°27'0 0.0
2014-Jun-12 11:28S 33°55' E 018°27'0 0.0
2014-Jun-12 10:31S 33°55' E 018°27'0 0.0
2014-Jun-12 09:28S 33°55' E 018°27'0 0.0
2014-Jun-12 08:28S 33°55' E 018°27'1 1.2
2014-Jun-12 07:33S 33°54' E 018°26'4 4.1
2014-Jun-12 06:32S 33°52' E 018°22'1413.7
2014-Jun-12 05:32S 33°43' E 018°09'2014.8
2014-Jun-12 04:12S 33°27' E 017°55'4214.4
2014-Jun-12 01:18S 32°55' E 017°24'3813.6
2014-Jun-11 22:32S 32°29' E 016°51'3014.0
2014-Jun-11 20:24S 32°09' E 016°25'  

Dump ship's entire track history